Time;durP1;ratioP1;P1;durP2;ratioP2;P2;SDS_P1;SDS_P2;PMS_P1;PMS_P2;Temp;Humidity;BMP_temperature;BMP_pressure;BME280_temperature;BME280_humidity;BME280_pressure;Samples;Min_cycle;Max_cycle;Signal;HPM_P1;HPM_P2
2022/01/18 00:01:57;;;;;;;1999.90;999.90;;;;;;;0.96;92.87;162654.94;4980959;28;20454;-67
2022/01/18 00:04:27;;;;;;;1999.90;999.90;;;;;;;0.99;93.39;162663.13;4984193;28;20178;-67
2022/01/18 00:06:54;;;;;;;1999.90;999.90;;;;;;;0.74;92.97;162594.75;4983324;28;20462;-67
2022/01/18 00:09:24;;;;;;;1999.90;999.90;;;;;;;0.67;94.17;162578.34;4981889;28;20097;-67
2022/01/18 00:11:59;;;;;;;1999.90;999.90;;;;;;;0.62;94.24;162563.28;4987646;28;20093;-67
2022/01/18 00:14:38;;;;;;;1999.90;999.90;;;;;;;0.50;94.03;162531.81;4987162;28;20584;-68
2022/01/18 00:17:17;;;;;;;1999.90;999.90;;;;;;;0.67;94.14;162576.94;4992288;28;20050;-67
2022/01/18 00:19:54;;;;;;;1999.90;999.90;;;;;;;0.56;93.92;162548.22;4989827;28;20082;-67
2022/01/18 00:22:22;;;;;;;1999.90;999.90;;;;;;;0.40;95.21;162504.47;4987050;28;20583;-67
2022/01/18 00:24:49;;;;;;;1999.90;999.90;;;;;;;0.30;95.33;162479.88;4980055;28;20050;-68
2022/01/18 00:27:17;;;;;;;1999.90;999.90;;;;;;;0.33;95.92;162486.72;4989922;28;20500;-67
2022/01/18 00:30:04;;;;;;;1999.90;999.90;;;;;;;0.47;95.30;162523.63;4983045;28;20038;-68
2022/01/18 00:32:53;;;;;;;1999.90;999.90;;;;;;;0.31;96.23;162481.22;4979393;28;20443;-68
2022/01/18 00:35:20;;;;;;;1999.90;999.90;;;;;;;0.47;95.76;162523.63;4992041;28;20370;-68
2022/01/18 00:37:55;;;;;;;1999.90;999.90;;;;;;;0.72;95.08;162590.66;4991331;28;20078;-67
2022/01/18 00:40:22;;;;;;;1999.90;999.90;;;;;;;0.88;93.81;162633.06;4989016;28;20072;-67
2022/01/18 00:42:49;;;;;;;1999.90;999.90;;;;;;;1.13;91.97;162698.72;4984635;28;20054;-67
2022/01/18 00:45:15;;;;;;;1999.90;999.90;;;;;;;1.07;92.22;162682.28;4985975;28;20428;-67
2022/01/18 00:47:42;;;;;;;1999.90;999.90;;;;;;;1.12;92.80;162697.34;4990736;28;20089;-67
2022/01/18 00:50:10;;;;;;;1999.90;999.90;;;;;;;0.76;93.45;162601.59;4991291;28;20072;-67
2022/01/18 00:52:41;;;;;;;1999.90;999.90;;;;;;;0.69;93.90;162583.78;4989663;28;20124;-67
2022/01/18 00:55:09;;;;;;;1999.90;999.90;;;;;;;0.43;94.85;162514.06;4987581;28;20043;-68
2022/01/18 00:57:36;;;;;;;1999.90;999.90;;;;;;;0.69;94.17;162582.44;4990947;28;20081;-67
2022/01/18 01:00:04;;;;;;;1999.90;999.90;;;;;;;0.95;93.32;162652.19;4988230;28;20042;-67
2022/01/18 01:02:31;;;;;;;1999.90;999.90;;;;;;;0.43;95.50;162512.66;4984205;28;20050;-67
2022/01/18 01:04:58;;;;;;;1999.90;999.90;;;;;;;0.59;95.29;162556.44;4991812;28;20077;-67
2022/01/18 01:07:24;;;;;;;1999.90;999.90;;;;;;;0.64;94.32;162570.13;4985356;28;20058;-68
2022/01/18 01:09:52;;;;;;;1999.90;999.90;;;;;;;0.59;94.75;162555.09;4992342;28;20065;-68
2022/01/18 01:12:22;;;;;;;1999.90;999.90;;;;;;;0.75;94.29;162597.50;4997985;28;20447;-68
2022/01/18 01:14:52;;;;;;;1999.90;999.90;;;;;;;0.56;95.21;162548.22;4988865;28;20101;-67
2022/01/18 01:17:34;;;;;;;1999.90;999.90;;;;;;;0.15;97.18;162438.88;4982020;28;20498;-67
2022/01/18 01:42:04;;;;;;;1999.90;999.90;;;;;;;0.33;96.13;162488.06;4989735;28;20089;-67
2022/01/18 01:44:43;;;;;;;1999.90;999.90;;;;;;;0.59;95.40;162556.44;4988837;28;20050;-68
2022/01/18 01:47:12;;;;;;;1999.90;999.90;;;;;;;0.40;96.02;162505.81;4990843;28;20057;-67
2022/01/18 01:49:39;;;;;;;1999.90;999.90;;;;;;;0.33;95.84;162488.06;4985091;28;20074;-68
2022/01/18 01:52:09;;;;;;;1999.90;999.90;;;;;;;0.28;96.36;162473.03;4990692;28;20050;-68
2022/01/18 01:54:36;;;;;;;1999.90;999.90;;;;;;;0.48;95.94;162527.72;4989063;28;20050;-67
2022/01/18 01:57:02;;;;;;;1999.90;999.90;;;;;;;0.42;95.73;162511.31;4982164;28;20074;-67
2022/01/18 01:59:30;;;;;;;1999.90;999.90;;;;;;;0.27;96.21;162471.66;4987426;28;20070;-67
2022/01/18 02:01:56;;;;;;;1999.90;999.90;;;;;;;0.17;96.86;162445.66;4990106;28;20073;-68
2022/01/18 02:04:24;;;;;;;1999.90;999.90;;;;;;;0.32;96.19;162485.31;4986717;28;20064;-68
2022/01/18 02:06:51;;;;;;;1999.90;999.90;;;;;;;0.31;97.18;162482.63;4986247;28;20089;-67
2022/01/18 02:09:18;;;;;;;1999.90;999.90;;;;;;;0.50;95.49;162531.81;4987722;28;20395;-67
2022/01/18 02:11:46;;;;;;;1999.90;999.90;;;;;;;0.42;95.71;162509.97;4993988;28;20050;-68
2022/01/18 02:14:18;;;;;;;1999.90;999.90;;;;;;;0.51;94.96;162535.94;4987846;28;20086;-67
2022/01/18 02:22:30;;;;;;;1999.90;999.90;;;;;;;0.75;93.67;162598.84;4982105;28;20339;-68
2022/01/18 02:24:57;;;;;;;1999.90;999.90;;;;;;;0.60;94.72;162559.19;4978260;28;20132;-67
2022/01/18 02:27:24;;;;;;;1999.90;999.90;;;;;;;0.42;95.81;162509.97;4986693;28;20105;-67
2022/01/18 02:29:50;;;;;;;1999.90;999.90;;;;;;;0.39;95.75;162501.72;4988991;28;20453;-68
2022/01/18 02:32:17;;;;;;;1999.90;999.90;;;;;;;0.38;95.62;162499.03;4989027;28;20050;-67
2022/01/18 02:34:44;;;;;;;1999.90;999.90;;;;;;;0.77;94.29;162604.31;4988621;28;20066;-67
2022/01/18 02:37:14;;;;;;;1999.90;999.90;;;;;;;0.56;94.36;162548.22;4987754;28;20112;-67
2022/01/18 02:39:42;;;;;;;1999.90;999.90;;;;;;;0.57;95.41;162550.97;4982873;28;20439;-67
2022/01/18 02:42:10;;;;;;;1999.90;999.90;;;;;;;0.90;93.78;162638.53;4979174;28;20093;-68
2022/01/18 02:44:37;;;;;;;1999.90;999.90;;;;;;;0.81;93.81;162613.91;4984448;28;20277;-67
2022/01/18 02:47:05;;;;;;;1999.90;999.90;;;;;;;0.54;94.66;162542.78;4987586;28;20155;-67
2022/01/18 02:49:32;;;;;;;1999.90;999.90;;;;;;;0.34;95.84;162489.41;4988047;28;20050;-68
2022/01/18 02:52:00;;;;;;;1999.90;999.90;;;;;;;0.48;96.20;162527.72;4984097;28;20132;-67
2022/01/18 02:54:27;;;;;;;1999.90;999.90;;;;;;;0.91;94.55;162639.88;4979574;28;20394;-67
2022/01/18 02:56:59;;;;;;;1999.90;999.90;;;;;;;0.57;94.63;162550.97;4986455;28;20081;-67
2022/01/18 02:59:43;;;;;;;1999.90;999.90;;;;;;;0.55;94.81;162545.47;4987965;28;20050;-68
2022/01/18 03:05:08;;;;;;;1999.90;999.90;;;;;;;0.83;93.65;162619.34;4981274;28;20062;-66
2022/01/18 03:07:35;;;;;;;1999.90;999.90;;;;;;;0.84;94.51;162623.47;4983322;28;20237;-66
2022/01/18 03:10:04;;;;;;;1999.90;999.90;;;;;;;0.59;95.10;162556.44;4977930;28;20199;-66
2022/01/18 03:12:30;;;;;;;1999.90;999.90;;;;;;;0.48;95.96;162526.38;4988637;28;20433;-67
2022/01/18 03:14:57;;;;;;;1999.90;999.90;;;;;;;0.51;95.83;162534.59;4987800;28;20436;-66
2022/01/18 03:17:24;;;;;;;1999.90;999.90;;;;;;;0.52;95.67;162538.69;4988414;28;20136;-67
2022/01/18 03:19:50;;;;;;;1999.90;999.90;;;;;;;0.15;97.21;162440.22;4984352;28;20097;-66
2022/01/18 03:22:17;;;;;;;1999.90;999.90;;;;;;;0.60;96.55;162559.19;4981233;28;20112;-66
2022/01/18 03:29:56;;;;;;;1999.90;999.90;;;;;;;0.53;96.68;162540.03;4988004;28;20077;-68
2022/01/18 03:32:23;;;;;;;1999.90;999.90;;;;;;;0.41;97.18;162507.22;4988771;28;20132;-67
2022/01/18 03:34:50;;;;;;;1999.90;999.90;;;;;;;0.48;97.20;162526.38;4988646;28;20316;-67
2022/01/18 03:37:16;;;;;;;1999.90;999.90;;;;;;;0.16;98.14;162442.97;4988307;28;20046;-67
2022/01/18 03:39:43;;;;;;;1999.90;999.90;;;;;;;0.11;98.66;162427.91;4987433;28;20120;-67
2022/01/18 03:44:57;;;;;;;1999.90;999.90;;;;;;;0.28;98.18;162474.41;4992277;28;20492;-67
2022/01/18 03:47:23;;;;;;;1999.90;999.90;;;;;;;0.80;96.30;162611.16;4993918;28;20086;-67
2022/01/18 03:49:50;;;;;;;1999.90;999.90;;;;;;;0.86;96.42;162627.56;4993065;28;20050;-67
2022/01/18 03:52:16;;;;;;;1999.90;999.90;;;;;;;0.67;96.41;162578.34;4994771;28;20054;-67
2022/01/18 03:54:47;;;;;;;1999.90;999.90;;;;;;;1.09;95.45;162689.16;4994667;28;20185;-68
2022/01/18 03:57:16;;;;;;;1999.90;999.90;;;;;;;1.03;94.98;162672.75;4987349;28;20086;-67
2022/01/18 03:59:43;;;;;;;1999.90;999.90;;;;;;;0.75;95.57;162597.50;4994777;28;20057;-67
2022/01/18 04:02:10;;;;;;;1999.90;999.90;;;;;;;1.13;95.51;162698.72;4992426;28;20058;-67
2022/01/18 04:04:38;;;;;;;1999.90;999.90;;;;;;;1.57;93.28;162816.41;4993606;28;20125;-67
2022/01/18 04:07:05;;;;;;;1999.90;999.90;;;;;;;1.30;94.51;162745.25;4992469;28;20443;-67
2022/01/18 04:09:33;;;;;;;1999.90;999.90;;;;;;;0.88;95.58;162634.41;4994155;28;20485;-67
2022/01/18 04:11:59;;;;;;;1999.90;999.90;;;;;;;0.59;97.01;162556.44;4994973;28;20108;-67
2022/01/18 04:14:26;;;;;;;1999.90;999.90;;;;;;;0.84;96.25;162623.47;4993915;28;20086;-67
2022/01/18 04:28:01;;;;;;;1999.90;999.90;;;;;;;0.39;98.73;162503.13;4994749;28;20058;-67
2022/01/18 04:30:28;;;;;;;1999.90;999.90;;;;;;;0.35;98.77;162493.53;4994918;28;20096;-67
2022/01/18 04:32:56;;;;;;;1999.90;999.90;;;;;;;0.54;97.99;162542.78;4995494;28;20042;-67
2022/01/18 04:35:22;;;;;;;1999.90;999.90;;;;;;;0.46;98.09;162522.28;4989918;28;20359;-68
2022/01/18 04:37:49;;;;;;;1999.90;999.90;;;;;;;0.27;98.81;162470.25;4991765;28;20054;-67
2022/01/18 04:40:18;;;;;;;1999.90;999.90;;;;;;;0.61;98.11;162560.53;4987169;28;20502;-67
2022/01/18 04:50:48;;;;;;;1999.90;999.90;;;;;;;0.30;98.72;162478.53;4980000;28;20430;-67
2022/01/18 04:53:15;;;;;;;1999.90;999.90;;;;;;;-0.01;100.00;162397.81;4982347;28;20082;-67
2022/01/18 04:55:42;;;;;;;1999.90;999.90;;;;;;;0.46;99.24;162522.28;4980151;28;20047;-68
2022/01/18 04:58:08;;;;;;;1999.90;999.90;;;;;;;1.22;96.53;162723.31;4979190;28;20518;-68
2022/01/18 05:00:35;;;;;;;1999.90;999.90;;;;;;;0.70;96.86;162586.53;4975267;28;20077;-69
2022/01/18 05:03:02;;;;;;;1999.90;999.90;;;;;;;0.50;98.35;162531.81;4980382;28;20159;-69
2022/01/18 05:05:36;;;;;;;1999.90;999.90;;;;;;;0.49;98.67;162530.47;4980148;28;20058;-68
2022/01/18 05:08:05;;;;;;;1999.90;999.90;;;;;;;0.38;98.33;162500.38;4986833;28;20113;-69
2022/01/18 05:10:32;;;;;;;1999.90;999.90;;;;;;;0.84;97.43;162622.09;4984965;28;20129;-68
2022/01/18 05:13:09;;;;;;;1999.90;999.90;;;;;;;0.48;97.95;162526.38;4990336;28;20128;-68
2022/01/18 05:15:43;;;;;;;1999.90;999.90;;;;;;;0.64;98.26;162570.13;4990328;28;20054;-68
2022/01/18 05:23:35;;;;;;;1999.90;999.90;;;;;;;0.51;98.19;162534.59;4988572;28;20156;-66
2022/01/18 05:26:02;;;;;;;1999.90;999.90;;;;;;;0.95;96.68;162650.81;4988207;28;20081;-66
2022/01/18 05:28:29;;;;;;;1999.90;999.90;;;;;;;0.55;98.04;162544.13;4988629;28;20043;-66
2022/01/18 05:30:55;;;;;;;1999.90;999.90;;;;;;;0.79;97.95;162608.41;4987966;28;20078;-66
2022/01/18 05:33:22;;;;;;;1999.90;999.90;;;;;;;0.97;96.59;162657.69;4988944;28;20330;-66
2022/01/18 05:35:52;;;;;;;1999.90;999.90;;;;;;;0.79;96.97;162608.41;4986930;28;20125;-66
2022/01/18 05:38:18;;;;;;;1999.90;999.90;;;;;;;0.56;97.76;162548.22;4985853;28;20147;-67
2022/01/18 05:40:45;;;;;;;1999.90;999.90;;;;;;;0.69;98.26;162582.44;4986581;28;20537;-67
2022/01/18 05:43:11;;;;;;;1999.90;999.90;;;;;;;0.81;97.32;162613.91;4984413;28;20442;-67
2022/01/18 05:45:38;;;;;;;1999.90;999.90;;;;;;;0.45;98.86;162518.16;4981491;28;20082;-67
2022/01/18 05:48:05;;;;;;;1999.90;999.90;;;;;;;0.53;98.52;162541.38;4978476;28;20082;-67
2022/01/18 05:50:31;;;;;;;1999.90;999.90;;;;;;;0.31;99.26;162481.22;4988818;28;20097;-67
2022/01/18 05:52:58;;;;;;;1999.90;999.90;;;;;;;0.27;100.00;162471.66;4988500;28;20375;-68
2022/01/18 05:55:25;;;;;;;1999.90;999.90;;;;;;;0.35;99.52;162492.16;4988253;28;20053;-67
2022/01/18 05:57:52;;;;;;;1999.90;999.90;;;;;;;0.57;99.02;162550.97;4990125;28;20046;-67
2022/01/18 06:00:22;;;;;;;1999.90;999.90;;;;;;;0.49;99.24;162529.06;4989193;28;20094;-67
2022/01/18 06:08:14;;;;;;;1999.90;999.90;;;;;;;0.09;100.00;162422.41;4988731;28;20054;-67
2022/01/18 06:10:40;;;;;;;1999.90;999.90;;;;;;;-0.01;100.00;162397.81;4988848;28;20050;-67
2022/01/18 06:13:08;;;;;;;1999.90;999.90;;;;;;;0.08;100.00;162419.72;4988928;28;20285;-67
2022/01/18 06:15:35;;;;;;;1999.90;999.90;;;;;;;0.07;100.00;162418.31;4982888;28;20077;-67
2022/01/18 06:18:02;;;;;;;1999.90;999.90;;;;;;;0.10;100.00;162426.50;4982140;28;20046;-67
2022/01/18 06:20:29;;;;;;;1999.90;999.90;;;;;;;0.49;99.57;162529.06;4988266;28;20364;-67
2022/01/18 06:22:55;;;;;;;1999.90;999.90;;;;;;;0.39;100.00;162503.13;4983268;28;20081;-67
2022/01/18 06:25:27;;;;;;;1999.90;999.90;;;;;;;-0.13;100.00;162365.03;4984793;28;20479;-67
2022/01/18 06:27:54;;;;;;;1999.90;999.90;;;;;;;0.27;100.00;162470.25;4987902;28;20105;-67
2022/01/18 06:30:21;;;;;;;1999.90;999.90;;;;;;;0.62;99.76;162564.63;4977965;28;20093;-67
2022/01/18 06:32:48;;;;;;;1999.90;999.90;;;;;;;0.72;98.75;162590.66;4987628;28;20104;-67
2022/01/18 06:35:17;;;;;;;1999.90;999.90;;;;;;;0.12;100.00;162432.00;4988082;28;20129;-67
2022/01/18 06:37:43;;;;;;;1999.90;999.90;;;;;;;0.21;100.00;162455.25;4988252;28;20054;-68
2022/01/18 06:40:11;;;;;;;1999.90;999.90;;;;;;;0.23;100.00;162459.38;4987902;28;20093;-67
2022/01/18 06:42:38;;;;;;;1999.90;999.90;;;;;;;0.15;100.00;162438.88;4989515;28;20110;-67
2022/01/18 06:45:06;;;;;;;1999.90;999.90;;;;;;;0.14;100.00;162436.13;4989816;28;20085;-67
2022/01/18 06:47:32;;;;;;;1999.90;999.90;;;;;;;0.41;99.59;162507.22;4988842;28;20410;-67
2022/01/18 06:49:59;;;;;;;1999.90;999.90;;;;;;;1.11;96.64;162693.25;4987819;28;20475;-67
2022/01/18 06:52:25;;;;;;;1999.90;999.90;;;;;;;0.67;97.46;162578.34;4988090;28;20104;-66
2022/01/18 06:54:52;;;;;;;1999.90;999.90;;;;;;;0.66;98.37;162574.25;4987529;28;20054;-67
2022/01/18 06:57:19;;;;;;;1999.90;999.90;;;;;;;0.17;99.19;162445.66;4988868;28;20081;-67
2022/01/18 06:59:45;;;;;;;1999.90;999.90;;;;;;;0.54;98.94;162542.78;4984582;28;20093;-67
2022/01/18 07:02:13;;;;;;;1999.90;999.90;;;;;;;0.28;100.00;162473.03;4988033;28;20129;-67
2022/01/18 07:04:40;;;;;;;1999.90;999.90;;;;;;;0.23;100.00;162460.72;4988934;28;20058;-67
2022/01/18 07:07:07;;;;;;;1999.90;999.90;;;;;;;0.60;98.25;162559.19;4986072;28;20050;-67
2022/01/18 07:09:35;;;;;;;1999.90;999.90;;;;;;;0.43;98.52;162512.66;4986877;28;20046;-67
2022/01/18 07:12:08;;;;;;;1999.90;999.90;;;;;;;0.42;100.00;162509.97;4983321;28;20049;-67
2022/01/18 07:14:35;;;;;;;1999.90;999.90;;;;;;;0.69;98.02;162583.78;4985443;28;20418;-67
2022/01/18 07:17:02;;;;;;;1999.90;999.90;;;;;;;0.54;98.68;162542.78;4987796;28;20461;-67
2022/01/18 07:19:33;;;;;;;1999.90;999.90;;;;;;;1.18;96.58;162712.41;4985852;28;20054;-67
2022/01/18 07:22:00;;;;;;;1999.90;999.90;;;;;;;1.35;95.46;162757.56;4987485;28;20082;-67
2022/01/18 07:24:39;;;;;;;1999.90;999.90;;;;;;;1.20;95.26;162719.22;4985054;28;20113;-67
2022/01/18 07:27:07;;;;;;;1999.90;999.90;;;;;;;0.61;98.39;162561.94;4978656;28;20113;-67
2022/01/18 07:29:35;;;;;;;1999.90;999.90;;;;;;;0.56;98.55;162546.88;4989006;28;20082;-67
2022/01/18 07:32:02;;;;;;;1999.90;999.90;;;;;;;0.58;98.67;162553.72;4982667;28;20082;-67
2022/01/18 07:34:31;;;;;;;1999.90;999.90;;;;;;;0.47;99.12;162523.63;4987422;28;20050;-67
2022/01/18 07:36:57;;;;;;;1999.90;999.90;;;;;;;0.23;100.00;162460.72;4987096;28;20128;-67
2022/01/18 07:39:24;;;;;;;1999.90;999.90;;;;;;;0.50;99.52;162531.81;4983321;28;20054;-67
2022/01/18 07:41:51;;;;;;;1999.90;999.90;;;;;;;0.42;99.05;162511.31;4983901;28;20450;-67
2022/01/18 07:44:19;;;;;;;1999.90;999.90;;;;;;;0.32;99.93;162485.31;4988273;28;20064;-67
2022/01/18 07:46:45;;;;;;;1999.90;999.90;;;;;;;0.77;97.98;162604.31;4988266;28;20136;-67
2022/01/18 07:49:12;;;;;;;1999.90;999.90;;;;;;;0.81;97.34;162613.91;4986747;28;20475;-67
2022/01/18 07:51:38;;;;;;;1999.90;999.90;;;;;;;0.77;97.99;162604.31;4981183;28;20079;-66
2022/01/18 07:54:05;;;;;;;1999.90;999.90;;;;;;;1.08;97.36;162685.06;4984368;28;20104;-67
2022/01/18 07:56:32;;;;;;;1999.90;999.90;;;;;;;0.83;97.03;162619.34;4979775;28;20439;-67
2022/01/18 07:59:11;;;;;;;1999.90;999.90;;;;;;;0.49;99.20;162529.06;4987891;28;20060;-67
2022/01/18 08:01:38;;;;;;;1999.90;999.90;;;;;;;0.69;99.57;162583.78;4988043;28;20051;-67
2022/01/18 08:04:05;;;;;;;1999.90;999.90;;;;;;;0.66;98.50;162575.59;4981904;28;20431;-67
2022/01/18 08:06:32;;;;;;;1999.90;999.90;;;;;;;0.60;98.26;162559.19;4980267;28;20047;-68
2022/01/18 08:08:58;;;;;;;1999.90;999.90;;;;;;;0.56;99.25;162548.22;4983128;28;20395;-68
2022/01/18 08:11:25;;;;;;;1999.90;999.90;;;;;;;0.67;98.57;162578.34;4986370;28;20043;-67
2022/01/18 08:13:51;;;;;;;1999.90;999.90;;;;;;;0.48;99.92;162527.72;4988321;28;20054;-67
2022/01/18 08:18:57;;;;;;;1999.90;999.90;;;;;;;0.96;99.08;162653.56;4984627;28;20050;-67
2022/01/18 08:21:24;;;;;;;1999.90;999.90;;;;;;;1.25;97.07;162730.19;4985166;28;20133;-67
2022/01/18 08:23:52;;;;;;;1999.90;999.90;;;;;;;1.59;96.41;162821.88;4983237;28;20050;-67
2022/01/18 08:26:19;;;;;;;1999.90;999.90;;;;;;;1.54;95.73;162808.19;4987596;28;20047;-67
2022/01/18 08:28:46;;;;;;;1999.90;999.90;;;;;;;1.69;95.69;162849.25;4987384;28;20082;-67
2022/01/18 08:31:13;;;;;;;1999.90;999.90;;;;;;;1.30;95.96;162745.25;4988476;28;20081;-67
2022/01/18 08:33:40;;;;;;;1999.90;999.90;;;;;;;1.72;95.61;162857.47;4989817;28;20086;-67
2022/01/18 08:36:07;;;;;;;1999.90;999.90;;;;;;;1.17;96.81;162709.66;4982772;28;20047;-68
2022/01/18 08:38:34;;;;;;;1999.90;999.90;;;;;;;1.61;95.88;162827.38;4984848;28;20109;-67
2022/01/18 08:41:02;;;;;;;1999.90;999.90;;;;;;;1.75;95.35;162865.66;4990887;28;20054;-67
2022/01/18 08:43:33;;;;;;;1999.90;999.90;;;;;;;1.01;97.61;162667.25;4989810;28;20383;-67
2022/01/18 08:46:00;;;;;;;1999.90;999.90;;;;;;;1.45;96.51;162783.59;4989880;28;20129;-67
2022/01/18 08:48:27;;;;;;;1999.90;999.90;;;;;;;1.78;95.82;162871.19;4988655;28;20055;-67
2022/01/18 08:50:54;;;;;;;1999.90;999.90;;;;;;;2.03;94.70;162939.59;4985315;28;20078;-67
2022/01/18 08:53:20;;;;;;;1999.90;999.90;;;;;;;1.33;96.17;162752.09;4987772;28;20043;-68
2022/01/18 08:55:47;;;;;;;1999.90;999.90;;;;;;;0.93;98.68;162645.38;4991235;28;20356;-68
2022/01/18 08:58:14;;;;;;;1999.90;999.90;;;;;;;1.42;97.75;162775.38;4990832;28;20159;-68
2022/01/18 09:00:41;;;;;;;1999.90;999.90;;;;;;;1.48;97.35;162791.78;4988696;28;20439;-68
2022/01/18 09:03:09;;;;;;;1999.90;999.90;;;;;;;1.19;97.22;162716.53;4988661;28;20050;-68
2022/01/18 09:05:38;;;;;;;1999.90;999.90;;;;;;;0.80;99.60;162611.16;4986850;28;20053;-68
2022/01/18 09:08:07;;;;;;;1999.90;999.90;;;;;;;1.40;98.53;162772.63;4982093;28;20042;-67
2022/01/18 09:10:34;;;;;;;1999.90;999.90;;;;;;;0.99;97.95;162663.13;4990774;28;20535;-68
2022/01/18 09:13:01;;;;;;;1999.90;999.90;;;;;;;0.58;99.75;162553.72;4991560;28;20065;-68
2022/01/18 09:15:29;;;;;;;1999.90;999.90;;;;;;;0.67;99.28;162578.34;4990745;28;20050;-68
2022/01/18 09:17:56;;;;;;;1999.90;999.90;;;;;;;0.61;100.00;162560.53;4990873;28;20046;-68
2022/01/18 09:20:24;;;;;;;1999.90;999.90;;;;;;;0.80;99.35;162611.16;4988129;28;20093;-67
2022/01/18 09:22:54;;;;;;;1999.90;999.90;;;;;;;0.82;99.08;162618.00;4990578;28;20501;-67
2022/01/18 09:25:27;;;;;;;1999.90;999.90;;;;;;;1.25;97.87;162730.19;4990716;28;20106;-67
2022/01/18 09:27:54;;;;;;;1999.90;999.90;;;;;;;1.30;97.83;162743.91;4989944;28;20489;-67
2022/01/18 09:30:25;;;;;;;1999.90;999.90;;;;;;;1.73;95.65;162860.22;4989180;28;20054;-68
2022/01/18 09:32:53;;;;;;;1999.90;999.90;;;;;;;2.01;95.12;162932.75;4989412;28;20129;-67
2022/01/18 09:35:21;;;;;;;1999.90;999.90;;;;;;;1.97;94.51;162923.19;4980047;28;20139;-67
2022/01/18 09:37:48;;;;;;;1999.90;999.90;;;;;;;1.63;95.55;162832.81;4988220;28;20311;-67
2022/01/18 09:40:19;;;;;;;1999.90;999.90;;;;;;;1.97;94.67;162923.19;4989884;28;20050;-67
2022/01/18 09:42:47;;;;;;;1999.90;999.90;;;;;;;2.33;93.44;163017.69;4989117;28;20054;-68
2022/01/18 09:45:16;;;;;;;1999.90;999.90;;;;;;;2.31;93.85;163012.16;4989081;28;20116;-67
2022/01/18 09:47:46;;;;;;;1999.90;999.90;;;;;;;1.89;93.83;162902.66;4985467;28;20050;-68
2022/01/18 09:50:17;;;;;;;1999.90;999.90;;;;;;;1.47;96.11;162790.38;5002763;28;20159;-67
2022/01/18 09:52:47;;;;;;;1999.90;999.90;;;;;;;1.64;95.19;162835.59;4988588;28;20126;-67
2022/01/18 09:55:14;;;;;;;1999.90;999.90;;;;;;;1.60;95.13;162824.63;4989231;28;20078;-68
2022/01/18 09:57:40;;;;;;;1999.90;999.90;;;;;;;1.50;96.93;162798.59;4988250;28;20058;-67
2022/01/18 10:00:08;;;;;;;1999.90;999.90;;;;;;;1.94;94.93;162914.97;4989183;28;20047;-68
2022/01/18 10:02:34;;;;;;;1999.90;999.90;;;;;;;1.54;94.84;162808.19;4987585;28;20234;-67
2022/01/18 10:05:17;;;;;;;1999.90;999.90;;;;;;;1.40;95.77;162772.63;4987928;28;20156;-67
2022/01/18 10:07:44;;;;;;;1999.90;999.90;;;;;;;2.07;93.70;162950.56;4988180;28;20441;-68
2022/01/18 10:10:10;;;;;;;1999.90;999.90;;;;;;;2.16;92.07;162972.47;4988153;28;20486;-68
2022/01/18 10:12:37;;;;;;;1999.90;999.90;;;;;;;2.49;90.67;163060.09;4978508;28;20058;-68
2022/01/18 10:15:05;;;;;;;1999.90;999.90;;;;;;;1.92;92.09;162910.88;4984987;28;20178;-67
2022/01/18 10:17:37;;;;;;;1999.90;999.90;;;;;;;1.53;93.09;162805.44;4985454;28;20100;-67
2022/01/18 10:20:14;;;;;;;1999.90;999.90;;;;;;;1.79;93.07;162875.28;4987047;28;20398;-67
2022/01/18 10:22:42;;;;;;;1999.90;999.90;;;;;;;2.00;92.48;162931.41;4987116;28;20047;-67
2022/01/18 10:25:14;;;;;;;1999.90;999.90;;;;;;;2.03;91.28;162939.59;4988600;28;20058;-67
2022/01/18 10:27:40;;;;;;;1999.90;999.90;;;;;;;2.23;91.93;162991.63;4981708;28;20077;-67
2022/01/18 10:30:16;;;;;;;1999.90;999.90;;;;;;;2.34;90.79;163021.78;4980123;28;20088;-67
2022/01/18 10:33:09;;;;;;;1999.90;999.90;;;;;;;1.94;92.01;162914.97;4988375;28;20108;-67
2022/01/18 10:35:35;;;;;;;1999.90;999.90;;;;;;;2.23;92.41;162991.63;4986601;28;20101;-67
2022/01/18 10:38:16;;;;;;;1999.90;999.90;;;;;;;1.89;92.76;162901.25;4982452;28;20148;-68
2022/01/18 10:40:42;;;;;;;1999.90;999.90;;;;;;;2.13;91.45;162965.66;4978510;28;20059;-67
2022/01/18 10:43:22;;;;;;;1999.90;999.90;;;;;;;1.93;91.88;162912.22;4984218;28;20054;-67
2022/01/18 10:45:49;;;;;;;1999.90;999.90;;;;;;;2.33;90.84;163019.03;4983522;28;20072;-68
2022/01/18 10:48:16;;;;;;;1999.90;999.90;;;;;;;1.61;91.42;162825.97;4989059;28;20133;-67
2022/01/18 10:50:46;;;;;;;1999.90;999.90;;;;;;;1.89;92.68;162901.25;4988292;28;20537;-67
2022/01/18 10:53:21;;;;;;;1999.90;999.90;;;;;;;1.53;94.31;162806.84;4977900;28;20050;-67
2022/01/18 10:56:12;;;;;;;1999.90;999.90;;;;;;;1.84;92.45;162888.94;4978729;28;20318;-67
2022/01/18 10:58:47;;;;;;;1999.90;999.90;;;;;;;2.22;92.45;162988.88;4981819;28;20435;-67
2022/01/18 11:01:18;;;;;;;1999.90;999.90;;;;;;;2.03;90.78;162939.59;4984265;28;20089;-67
2022/01/18 11:04:09;;;;;;;1999.90;999.90;;;;;;;2.40;90.27;163038.22;4987656;28;20049;-68
2022/01/18 11:06:36;;;;;;;1999.90;999.90;;;;;;;2.61;89.42;163094.34;4987933;28;20106;-67
2022/01/18 11:09:14;;;;;;;1999.90;999.90;;;;;;;2.09;89.94;162954.69;4986745;28;20354;-68
2022/01/18 11:11:48;;;;;;;1999.90;999.90;;;;;;;1.47;92.30;162789.03;4983473;28;20054;-68
2022/01/18 11:14:21;;;;;;;1999.90;999.90;;;;;;;1.87;92.22;162895.81;4979250;28;20090;-68
2022/01/18 11:16:49;;;;;;;1999.90;999.90;;;;;;;2.06;91.32;162947.81;4983290;28;20082;-68
2022/01/18 11:19:31;;;;;;;1999.90;999.90;;;;;;;1.62;92.79;162830.06;4987122;28;20124;-68
2022/01/18 11:22:01;;;;;;;1999.90;999.90;;;;;;;1.29;92.70;162742.50;4987730;28;20332;-68
2022/01/18 11:24:29;;;;;;;1999.90;999.90;;;;;;;1.48;92.39;162793.13;4987030;28;20462;-68
2022/01/18 11:26:57;;;;;;;1999.90;999.90;;;;;;;1.26;93.44;162734.28;4979554;28;20502;-68
2022/01/18 11:29:26;;;;;;;1999.90;999.90;;;;;;;1.68;92.39;162846.53;4985884;28;20082;-68
2022/01/18 11:31:55;;;;;;;1999.90;999.90;;;;;;;1.69;91.65;162847.91;4986312;28;20054;-69
2022/01/18 11:34:33;;;;;;;1999.90;999.90;;;;;;;1.50;92.74;162798.59;4987005;28;20100;-68
2022/01/18 11:37:55;;;;;;;1999.90;999.90;;;;;;;1.46;91.94;162786.28;4983955;28;20156;-68
2022/01/18 11:40:23;;;;;;;1999.90;999.90;;;;;;;1.85;90.44;162890.34;4989606;28;20073;-69
2022/01/18 11:42:55;;;;;;;1999.90;999.90;;;;;;;1.35;92.11;162758.91;4981995;28;20090;-68
2022/01/18 11:45:24;;;;;;;1999.90;999.90;;;;;;;2.02;92.57;162935.50;4987255;28;20102;-68
2022/01/18 11:48:07;;;;;;;1999.90;999.90;;;;;;;2.77;89.28;163135.44;4988192;28;20112;-66
2022/01/18 11:50:37;;;;;;;1999.90;999.90;;;;;;;2.36;89.02;163025.88;4988068;28;20047;-69
2022/01/18 11:56:40;;;;;;;1999.90;999.90;;;;;;;1.67;91.16;162842.44;4968047;28;20058;-68
2022/01/18 11:59:18;;;;;;;1999.90;999.90;;;;;;;1.83;90.68;162884.84;4987422;28;20058;-66
2022/01/18 12:02:05;;;;;;;1999.90;999.90;;;;;;;1.91;89.71;162906.78;4985585;28;20304;-69
2022/01/18 12:04:38;;;;;;;1999.90;999.90;;;;;;;1.79;90.38;162873.88;4986116;28;20054;-68
2022/01/18 12:07:05;;;;;;;1999.90;999.90;;;;;;;1.71;91.04;162853.34;4990829;28;20065;-69
2022/01/18 12:09:38;;;;;;;1999.90;999.90;;;;;;;2.29;88.53;163008.06;4988747;28;20051;-69
2022/01/18 12:12:25;;;;;;;1999.90;999.90;;;;;;;2.13;88.31;162964.25;4989771;28;20387;-68
2022/01/18 12:14:52;;;;;;;1999.90;999.90;;;;;;;2.17;89.14;162975.22;4989860;28;20129;-69
2022/01/18 12:17:18;;;;;;;1999.90;999.90;;;;;;;2.36;88.65;163027.25;4991600;28;20086;-67
2022/01/18 12:19:47;;;;;;;1999.90;999.90;;;;;;;2.13;88.40;162965.66;4990843;28;20101;-67